Time;durP1;ratioP1;P1;durP2;ratioP2;P2;SDS_P1;SDS_P2;PMS_P1;PMS_P2;Temp;Humidity;BMP_temperature;BMP_pressure;BME280_temperature;BME280_humidity;BME280_pressure;Samples;Min_cycle;Max_cycle;Signal;HPM_P1;HPM_P2
2021/07/26 00:02:07;;;;;;;6.25;3.45;;;16.70;91.50;;;;;;4964737;28;20038;-74
2021/07/26 00:04:32;;;;;;;6.28;3.50;;;16.80;91.50;;;;;;4968607;28;20441;-73
2021/07/26 00:06:58;;;;;;;4.82;3.70;;;16.80;91.20;;;;;;4967911;28;20027;-72
2021/07/26 00:09:24;;;;;;;4.82;3.28;;;16.70;91.10;;;;;;4964587;28;20496;-73
2021/07/26 00:11:49;;;;;;;7.65;3.42;;;16.70;91.00;;;;;;4966518;28;20063;-73
2021/07/26 00:14:15;;;;;;;3.85;3.25;;;16.70;90.90;;;;;;4969117;28;20027;-72
2021/07/26 00:16:40;;;;;;;5.43;3.72;;;16.70;90.90;;;;;;4969738;28;20039;-72
2021/07/26 00:19:06;;;;;;;5.43;3.60;;;16.70;91.10;;;;;;4965489;28;20161;-73
2021/07/26 00:21:31;;;;;;;6.07;4.20;;;16.70;91.50;;;;;;4970432;28;20113;-72
2021/07/26 00:23:57;;;;;;;6.63;3.40;;;16.70;91.40;;;;;;4968412;28;20034;-72
2021/07/26 00:26:25;;;;;;;4.35;3.78;;;16.60;91.40;;;;;;4968757;28;20062;-74
2021/07/26 00:28:50;;;;;;;6.35;3.65;;;16.60;91.40;;;;;;4971066;28;20018;-72
2021/07/26 00:31:16;;;;;;;4.35;3.65;;;16.70;91.40;;;;;;4957345;28;20102;-73
2021/07/26 00:34:15;;;;;;;4.68;2.92;;;16.60;91.20;;;;;;4945365;28;20552;-73
2021/07/26 00:36:43;;;;;;;4.38;3.67;;;16.50;91.10;;;;;;4942798;28;20041;-73
2021/07/26 00:39:10;;;;;;;5.05;3.75;;;16.50;91.80;;;;;;4947347;28;20074;-74
2021/07/26 00:41:36;;;;;;;7.50;3.67;;;16.50;91.70;;;;;;4944505;28;20031;-73
2021/07/26 00:44:03;;;;;;;6.78;4.00;;;16.50;91.90;;;;;;4944637;28;20035;-73
2021/07/26 00:46:28;;;;;;;9.57;3.80;;;16.50;91.80;;;;;;4946915;28;20090;-73
2021/07/26 00:48:55;;;;;;;7.13;4.18;;;16.60;91.60;;;;;;4942594;28;20749;-73
2021/07/26 00:51:21;;;;;;;5.45;3.72;;;16.50;92.10;;;;;;4945917;28;20579;-73
2021/07/26 00:53:48;;;;;;;4.35;3.45;;;16.60;91.70;;;;;;4947031;28;20122;-74
2021/07/26 00:56:14;;;;;;;9.90;3.42;;;16.70;91.30;;;;;;4946786;28;20020;-73
2021/07/26 00:58:40;;;;;;;5.20;3.58;;;16.60;91.40;;;;;;4940812;28;20034;-73
2021/07/26 01:01:06;;;;;;;7.50;3.97;;;16.60;91.70;;;;;;4948269;28;20510;-72
2021/07/26 01:03:32;;;;;;;7.35;3.60;;;16.50;91.80;;;;;;4939121;28;20034;-72
2021/07/26 01:05:58;;;;;;;6.55;4.13;;;16.50;92.00;;;;;;4944734;28;20051;-72
2021/07/26 01:08:24;;;;;;;7.30;4.25;;;16.50;92.00;;;;;;4941018;28;20131;-73
2021/07/26 01:10:50;;;;;;;8.98;5.03;;;16.60;92.20;;;;;;4945856;28;20046;-73
2021/07/26 01:13:15;;;;;;;5.65;4.53;;;16.60;92.00;;;;;;4945446;28;20122;-72
2021/07/26 01:15:41;;;;;;;8.05;4.13;;;16.60;91.70;;;;;;4948060;28;20490;-73
2021/07/26 01:18:30;;;;;;;5.38;3.42;;;16.50;91.60;;;;;;4948277;28;20055;-73
2021/07/26 01:21:07;;;;;;;4.13;3.50;;;16.50;91.40;;;;;;4945699;28;20019;-72
2021/07/26 01:23:38;;;;;;;8.43;4.68;;;16.40;91.60;;;;;;4942122;28;20035;-73
2021/07/26 01:26:09;;;;;;;5.10;3.55;;;16.40;92.10;;;;;;4945800;28;20015;-73
2021/07/26 01:28:44;;;;;;;7.47;3.35;;;16.40;91.50;;;;;;4942569;28;20099;-73
2021/07/26 01:31:10;;;;;;;4.50;3.75;;;16.30;91.40;;;;;;4952105;28;20560;-73
2021/07/26 01:33:37;;;;;;;5.28;3.78;;;16.30;91.60;;;;;;4963358;28;20030;-72
2021/07/26 01:36:04;;;;;;;7.78;4.15;;;16.40;91.70;;;;;;4966246;28;20038;-73
2021/07/26 01:38:30;;;;;;;5.63;3.90;;;16.40;91.90;;;;;;4962103;28;20405;-73
2021/07/26 01:41:04;;;;;;;6.47;4.30;;;16.30;92.10;;;;;;4959790;28;20019;-73
2021/07/26 01:43:34;;;;;;;8.32;4.75;;;16.40;92.50;;;;;;4966149;28;20037;-73
2021/07/26 01:46:02;;;;;;;7.95;4.47;;;16.40;92.40;;;;;;4964828;28;20106;-73
2021/07/26 01:48:47;;;;;;;11.88;5.03;;;16.40;92.60;;;;;;4967488;28;20454;-73
2021/07/26 01:51:29;;;;;;;7.30;4.75;;;16.40;92.70;;;;;;4960622;28;20038;-73
2021/07/26 01:53:55;;;;;;;6.30;5.10;;;16.40;92.50;;;;;;4962967;28;20050;-73
2021/07/26 01:56:21;;;;;;;6.35;4.80;;;16.50;92.80;;;;;;4959115;28;20694;-74
2021/07/26 01:58:47;;;;;;;7.70;4.68;;;16.50;92.70;;;;;;4962743;28;20027;-75
2021/07/26 02:01:12;;;;;;;7.30;4.63;;;16.50;92.70;;;;;;4959206;28;20419;-75
2021/07/26 02:03:38;;;;;;;10.27;4.97;;;16.50;92.50;;;;;;4966979;28;20027;-75
2021/07/26 02:06:03;;;;;;;7.75;5.35;;;16.50;92.50;;;;;;4965261;28;20129;-75
2021/07/26 02:08:29;;;;;;;6.72;4.50;;;16.50;92.40;;;;;;4966985;28;20102;-75
2021/07/26 02:10:55;;;;;;;8.25;4.97;;;16.50;92.20;;;;;;4964629;28;20042;-76
2021/07/26 02:13:20;;;;;;;9.27;5.43;;;16.50;92.20;;;;;;4967784;28;20030;-75
2021/07/26 02:15:46;;;;;;;11.57;5.20;;;16.60;92.30;;;;;;4966733;28;20569;-75
2021/07/26 02:18:12;;;;;;;11.48;5.47;;;16.60;92.20;;;;;;4967660;28;20494;-75
2021/07/26 02:20:37;;;;;;;7.68;4.95;;;16.60;92.70;;;;;;4965529;28;20031;-74
2021/07/26 02:23:03;;;;;;;6.65;5.15;;;16.60;92.40;;;;;;4968808;28;20033;-74
2021/07/26 02:25:29;;;;;;;6.85;5.10;;;16.60;92.60;;;;;;4968870;28;20045;-75
2021/07/26 02:27:55;;;;;;;6.20;4.78;;;16.70;92.30;;;;;;4966399;28;20031;-75
2021/07/26 02:30:21;;;;;;;9.43;5.07;;;16.60;92.30;;;;;;4970346;28;20050;-75
2021/07/26 02:32:46;;;;;;;10.93;6.70;;;16.50;92.60;;;;;;4950006;28;20054;-74
2021/07/26 02:35:12;;;;;;;6.28;4.50;;;16.60;92.60;;;;;;4953450;28;20131;-75
2021/07/26 02:37:38;;;;;;;7.78;4.90;;;16.60;92.30;;;;;;4952926;28;20059;-76
2021/07/26 02:40:04;;;;;;;8.50;5.18;;;16.70;92.40;;;;;;4951026;28;20051;-75
2021/07/26 02:42:30;;;;;;;8.90;5.03;;;16.60;92.40;;;;;;4945495;28;20052;-75
2021/07/26 02:44:55;;;;;;;8.18;5.05;;;16.60;92.60;;;;;;4951119;28;20027;-77
2021/07/26 02:47:21;;;;;;;8.27;5.20;;;16.60;92.60;;;;;;4951449;28;20093;-75
2021/07/26 02:49:47;;;;;;;9.13;4.70;;;16.60;92.60;;;;;;4949023;28;20035;-75
2021/07/26 02:52:13;;;;;;;13.38;5.47;;;16.60;92.60;;;;;;4948622;28;20036;-75
2021/07/26 02:54:38;;;;;;;8.10;5.30;;;16.60;92.60;;;;;;4950715;28;20035;-74
2021/07/26 02:57:05;;;;;;;8.32;5.65;;;16.60;92.60;;;;;;4948990;28;20034;-74
2021/07/26 02:59:30;;;;;;;8.43;5.05;;;16.60;92.70;;;;;;4946801;28;20027;-74
2021/07/26 03:01:56;;;;;;;5.35;4.78;;;16.50;92.90;;;;;;4948756;28;20075;-75
2021/07/26 03:04:21;;;;;;;7.40;5.65;;;16.60;92.70;;;;;;4947387;29;20082;-74
2021/07/26 03:06:47;;;;;;;7.95;4.80;;;16.60;92.60;;;;;;4945956;28;20058;-75
2021/07/26 03:09:12;;;;;;;8.40;5.50;;;16.60;92.70;;;;;;4948291;28;20569;-74
2021/07/26 03:11:38;;;;;;;9.82;5.05;;;16.60;92.60;;;;;;4951420;28;20231;-74
2021/07/26 03:14:04;;;;;;;9.38;4.82;;;16.60;92.30;;;;;;4943508;28;20034;-74
2021/07/26 03:16:30;;;;;;;10.45;5.10;;;16.70;92.20;;;;;;4951231;28;20027;-74
2021/07/26 03:18:55;;;;;;;6.68;5.20;;;16.70;92.20;;;;;;4947501;28;20039;-75
2021/07/26 03:21:21;;;;;;;7.22;4.93;;;16.70;92.10;;;;;;4948276;28;20095;-75
2021/07/26 03:23:47;;;;;;;7.03;4.30;;;16.70;92.10;;;;;;4950782;28;20122;-75
2021/07/26 03:26:13;;;;;;;9.07;5.35;;;16.70;92.00;;;;;;4949906;28;20098;-74
2021/07/26 03:28:39;;;;;;;7.40;5.32;;;16.70;92.10;;;;;;4940721;28;20114;-75
2021/07/26 03:31:05;;;;;;;11.13;5.50;;;16.70;92.30;;;;;;4955228;28;21294;-73
2021/07/26 03:33:31;;;;;;;8.75;5.13;;;16.70;92.20;;;;;;4971535;28;20038;-74
2021/07/26 03:35:57;;;;;;;6.55;4.20;;;16.70;92.30;;;;;;4971970;28;20023;-74
2021/07/26 03:38:23;;;;;;;8.77;4.85;;;16.60;92.40;;;;;;4967168;28;20030;-75
2021/07/26 03:40:50;;;;;;;6.90;4.85;;;16.60;92.40;;;;;;4970713;28;20035;-73
2021/07/26 03:43:16;;;;;;;7.80;4.97;;;16.60;92.80;;;;;;4970008;28;20030;-74
2021/07/26 03:45:43;;;;;;;7.20;4.75;;;16.60;92.30;;;;;;4968514;28;20031;-73
2021/07/26 03:48:08;;;;;;;7.68;5.10;;;16.60;92.30;;;;;;4964070;28;20046;-73
2021/07/26 03:50:34;;;;;;;10.02;4.85;;;16.50;92.60;;;;;;4968328;28;20054;-74
2021/07/26 03:53:00;;;;;;;8.43;5.68;;;16.50;92.70;;;;;;4969860;28;20037;-73
2021/07/26 03:55:34;;;;;;;8.88;4.97;;;16.60;92.80;;;;;;4966994;28;20023;-72
2021/07/26 03:58:00;;;;;;;6.85;4.72;;;16.60;92.60;;;;;;4967724;28;20026;-73
2021/07/26 04:00:28;;;;;;;9.00;4.93;;;16.60;92.50;;;;;;4967481;28;20101;-72
2021/07/26 04:08:09;;;;;;;12.48;5.53;;;16.70;92.40;;;;;;4969002;28;20125;-73
2021/07/26 04:10:41;;;;;;;10.30;5.15;;;16.70;92.50;;;;;;4966022;28;20037;-72
2021/07/26 04:13:06;;;;;;;7.85;4.93;;;16.70;92.50;;;;;;4966267;28;20035;-71
2021/07/26 04:15:32;;;;;;;9.38;4.90;;;16.70;92.50;;;;;;4967348;28;20041;-73
2021/07/26 04:17:58;;;;;;;7.68;4.55;;;16.80;92.50;;;;;;4967845;28;20541;-73
2021/07/26 04:20:24;;;;;;;9.55;6.00;;;16.70;92.60;;;;;;4969931;28;20110;-73
2021/07/26 04:22:49;;;;;;;8.35;4.70;;;16.70;92.60;;;;;;4969391;28;20078;-73
2021/07/26 04:25:15;;;;;;;9.25;5.13;;;16.80;92.60;;;;;;4969949;28;20556;-73
2021/07/26 04:27:41;;;;;;;8.18;5.40;;;16.70;92.50;;;;;;4969820;28;20109;-73
2021/07/26 04:30:07;;;;;;;7.03;4.95;;;16.80;92.50;;;;;;4968051;28;20034;-73
2021/07/26 04:32:46;;;;;;;9.43;5.40;;;16.80;92.50;;;;;;4967242;28;20073;-75
2021/07/26 04:35:16;;;;;;;10.13;5.10;;;16.80;92.40;;;;;;4963996;28;20023;-74
2021/07/26 04:37:42;;;;;;;9.25;5.65;;;16.90;92.40;;;;;;4966058;28;20688;-74
2021/07/26 04:40:09;;;;;;;11.13;6.05;;;16.80;92.30;;;;;;4969290;28;20037;-74
2021/07/26 04:42:36;;;;;;;11.60;6.18;;;16.90;92.40;;;;;;4969200;28;20133;-74
2021/07/26 04:45:03;;;;;;;11.63;5.45;;;16.80;92.60;;;;;;4968394;28;20027;-74
2021/07/26 04:47:29;;;;;;;8.88;5.50;;;16.80;92.80;;;;;;4967737;28;20529;-74
2021/07/26 04:49:54;;;;;;;9.82;5.75;;;16.80;92.90;;;;;;4968642;28;20093;-74
2021/07/26 04:52:20;;;;;;;8.88;5.40;;;16.80;93.10;;;;;;4967775;28;20110;-74
2021/07/26 04:54:46;;;;;;;8.70;5.70;;;16.90;92.70;;;;;;4967587;28;20081;-74
2021/07/26 04:57:11;;;;;;;11.38;5.40;;;16.90;92.70;;;;;;4961485;28;20027;-74
2021/07/26 04:59:37;;;;;;;7.68;5.18;;;16.90;92.80;;;;;;4967452;28;20461;-74
2021/07/26 05:02:03;;;;;;;7.28;5.07;;;16.90;92.80;;;;;;4953532;28;20063;-74
2021/07/26 05:04:28;;;;;;;10.90;6.28;;;17.00;92.50;;;;;;4949606;28;20089;-74
2021/07/26 05:07:03;;;;;;;11.00;5.32;;;17.00;92.50;;;;;;4946322;28;20112;-74
2021/07/26 05:09:29;;;;;;;11.23;5.35;;;17.00;92.50;;;;;;4945092;28;20109;-73
2021/07/26 05:12:01;;;;;;;13.32;5.20;;;17.00;92.40;;;;;;4946970;28;20097;-73
2021/07/26 05:14:28;;;;;;;9.20;4.80;;;17.10;92.60;;;;;;4950162;28;20106;-72
2021/07/26 05:16:54;;;;;;;11.50;5.22;;;17.00;92.40;;;;;;4947918;28;20106;-73
2021/07/26 05:19:20;;;;;;;8.13;5.32;;;17.00;92.60;;;;;;4949781;28;20114;-72
2021/07/26 05:21:45;;;;;;;9.93;5.30;;;17.00;92.90;;;;;;4948843;28;20043;-73
2021/07/26 05:24:11;;;;;;;8.93;5.25;;;16.90;93.10;;;;;;4949162;28;20040;-73
2021/07/26 05:26:37;;;;;;;8.48;5.45;;;17.00;93.00;;;;;;4944979;28;20041;-74
2021/07/26 05:29:02;;;;;;;12.95;5.10;;;17.00;92.90;;;;;;4948155;28;20062;-73
2021/07/26 05:31:28;;;;;;;6.22;4.65;;;17.10;92.70;;;;;;4956428;28;20261;-73
2021/07/26 05:33:54;;;;;;;6.80;4.65;;;17.10;92.60;;;;;;4966334;28;20031;-74
2021/07/26 05:36:23;;;;;;;7.43;4.97;;;17.10;92.60;;;;;;4966086;28;20590;-73
2021/07/26 05:38:52;;;;;;;6.53;4.57;;;17.10;92.60;;;;;;4966390;28;20517;-74
2021/07/26 05:41:17;;;;;;;6.65;4.35;;;17.20;92.40;;;;;;4966138;28;20181;-72
2021/07/26 05:43:44;;;;;;;6.18;4.40;;;17.20;92.80;;;;;;4963976;28;20118;-72
2021/07/26 05:46:10;;;;;;;7.50;4.82;;;17.20;92.40;;;;;;4966273;28;20035;-72
2021/07/26 05:48:36;;;;;;;9.25;4.53;;;17.20;92.40;;;;;;4966265;28;20030;-72
2021/07/26 05:51:03;;;;;;;7.32;4.97;;;17.20;92.40;;;;;;4961380;28;20034;-72
2021/07/26 05:53:30;;;;;;;10.13;5.17;;;17.20;92.60;;;;;;4965864;28;20027;-72
2021/07/26 05:55:56;;;;;;;5.85;4.57;;;17.20;92.90;;;;;;4964627;28;20031;-71
2021/07/26 05:58:21;;;;;;;9.52;5.40;;;17.30;92.80;;;;;;4968381;28;20027;-72
2021/07/26 06:00:58;;;;;;;7.95;4.65;;;17.30;92.90;;;;;;4964680;28;20041;-73
2021/07/26 06:03:24;;;;;;;6.93;5.20;;;17.30;92.90;;;;;;4971807;28;20036;-71
2021/07/26 06:05:49;;;;;;;6.70;4.18;;;17.30;92.90;;;;;;4968129;28;20505;-72
2021/07/26 06:08:15;;;;;;;5.22;4.10;;;17.30;92.80;;;;;;4970133;28;20022;-72
2021/07/26 06:10:41;;;;;;;6.55;4.13;;;17.40;92.70;;;;;;4966623;28;20050;-72
2021/07/26 06:13:07;;;;;;;9.15;4.53;;;17.50;92.60;;;;;;4961118;28;20091;-71
2021/07/26 06:15:33;;;;;;;7.15;4.72;;;17.50;92.50;;;;;;4966731;28;20041;-71
2021/07/26 06:17:59;;;;;;;9.60;5.05;;;17.50;92.50;;;;;;4969856;28;20019;-71
2021/07/26 06:20:24;;;;;;;7.50;4.80;;;17.50;92.50;;;;;;4969101;28;20449;-71
2021/07/26 06:22:53;;;;;;;7.95;4.95;;;17.50;92.50;;;;;;4969643;28;20031;-71
2021/07/26 06:25:19;;;;;;;8.20;5.50;;;17.60;92.50;;;;;;4969364;28;20023;-71
2021/07/26 06:27:44;;;;;;;8.85;5.43;;;17.50;92.70;;;;;;4969558;28;20180;-71
2021/07/26 06:30:11;;;;;;;9.63;5.28;;;17.50;93.10;;;;;;4970748;28;20023;-71
2021/07/26 06:32:36;;;;;;;7.78;4.28;;;17.40;93.20;;;;;;4942004;28;20777;-71
2021/07/26 06:35:03;;;;;;;7.28;4.70;;;17.40;93.30;;;;;;4946406;28;20071;-71
2021/07/26 06:37:29;;;;;;;6.50;4.90;;;17.30;93.30;;;;;;4945137;28;20130;-72
2021/07/26 06:39:55;;;;;;;9.00;4.93;;;17.40;93.20;;;;;;4943482;28;20035;-71
2021/07/26 06:42:20;;;;;;;6.38;5.00;;;17.40;93.20;;;;;;4949114;28;20486;-72
2021/07/26 06:44:46;;;;;;;6.38;4.75;;;17.40;93.30;;;;;;4951055;28;20043;-72
2021/07/26 06:47:12;;;;;;;9.15;4.65;;;17.40;93.40;;;;;;4950584;28;20118;-72
2021/07/26 06:49:37;;;;;;;7.30;4.57;;;17.40;93.00;;;;;;4952702;28;20482;-72
2021/07/26 06:52:03;;;;;;;9.82;4.40;;;17.50;92.90;;;;;;4940573;28;20039;-71
2021/07/26 06:54:29;;;;;;;6.35;4.20;;;17.50;92.90;;;;;;4950661;28;20027;-71
2021/07/26 06:56:55;;;;;;;6.85;4.38;;;17.50;92.80;;;;;;4949640;28;20537;-72
2021/07/26 06:59:20;;;;;;;6.55;4.60;;;17.60;92.80;;;;;;4949414;28;20234;-72
2021/07/26 07:01:46;;;;;;;7.45;4.35;;;17.60;92.60;;;;;;4964123;28;20418;-72
2021/07/26 07:04:13;;;;;;;8.85;4.97;;;17.60;92.50;;;;;;4976373;28;20041;-71
2021/07/26 07:06:40;;;;;;;6.10;4.63;;;17.70;92.70;;;;;;4977114;28;20498;-71
2021/07/26 07:09:05;;;;;;;7.85;4.70;;;17.70;92.70;;;;;;4971399;28;20045;-71
2021/07/26 07:11:31;;;;;;;6.22;4.50;;;17.70;92.70;;;;;;4968647;28;20571;-71
2021/07/26 07:13:57;;;;;;;7.90;4.47;;;17.70;92.60;;;;;;4967307;28;20707;-72
2021/07/26 07:16:24;;;;;;;8.63;4.45;;;17.70;92.60;;;;;;4975470;28;20022;-72
2021/07/26 07:18:52;;;;;;;7.05;4.80;;;17.70;92.80;;;;;;4969049;28;20053;-71
2021/07/26 07:21:22;;;;;;;6.22;4.75;;;17.80;92.60;;;;;;4969457;28;20046;-72
2021/07/26 07:23:49;;;;;;;7.18;4.97;;;17.80;92.40;;;;;;4968363;28;20053;-72
2021/07/26 07:26:16;;;;;;;5.63;4.78;;;17.80;92.40;;;;;;4968356;28;20536;-72
2021/07/26 07:28:44;;;;;;;6.95;4.80;;;17.90;92.60;;;;;;4970421;28;20478;-71
2021/07/26 07:31:10;;;;;;;;;;;17.90;92.70;;;;;;4970250;28;20069;-72
2021/07/26 07:33:35;;;;;;;7.97;4.38;;;18.00;92.80;;;;;;4970511;28;19953;-74
2021/07/26 07:36:03;;;;;;;9.07;4.80;;;18.00;92.80;;;;;;4973394;28;20031;-74
2021/07/26 07:38:28;;;;;;;8.25;4.38;;;18.10;92.50;;;;;;4971582;28;20061;-75
2021/07/26 07:40:54;;;;;;;8.27;3.90;;;18.10;92.40;;;;;;4968436;28;20047;-74
2021/07/26 07:43:20;;;;;;;4.85;3.35;;;18.10;92.50;;;;;;4969641;28;20548;-74
2021/07/26 07:45:45;;;;;;;6.13;3.67;;;18.10;92.20;;;;;;4970720;28;20042;-73
2021/07/26 07:48:11;;;;;;;5.78;3.78;;;18.20;92.20;;;;;;4973655;28;20039;-74
2021/07/26 07:50:37;;;;;;;5.80;3.50;;;18.20;92.00;;;;;;4968012;28;20038;-73
2021/07/26 07:53:03;;;;;;;5.10;3.45;;;18.20;91.80;;;;;;4971247;28;20414;-73
2021/07/26 07:55:29;;;;;;;3.67;3.17;;;18.30;91.90;;;;;;4966690;28;20059;-73
2021/07/26 07:57:55;;;;;;;3.53;2.90;;;18.30;91.50;;;;;;4967836;28;20054;-73
2021/07/26 08:00:22;;;;;;;5.18;3.40;;;18.30;91.30;;;;;;4969909;28;20077;-73
2021/07/26 08:02:48;;;;;;;4.97;3.70;;;18.40;91.50;;;;;;4971506;28;20030;-73
2021/07/26 08:05:17;;;;;;;4.70;3.38;;;18.40;91.40;;;;;;4972360;28;20046;-74
2021/07/26 08:07:44;;;;;;;6.32;3.35;;;18.40;91.40;;;;;;4967506;28;20019;-74
2021/07/26 08:10:10;;;;;;;6.25;3.38;;;18.40;91.30;;;;;;4997582;28;20114;-74
2021/07/26 08:12:36;;;;;;;6.85;3.60;;;18.40;91.00;;;;;;4965178;28;20043;-73
2021/07/26 08:15:01;;;;;;;4.93;3.92;;;18.50;91.10;;;;;;4966977;28;20172;-72
2021/07/26 08:17:27;;;;;;;6.70;3.30;;;18.50;91.00;;;;;;4968717;28;20556;-74
2021/07/26 08:19:52;;;;;;;4.32;3.20;;;18.50;90.50;;;;;;4967979;28;20712;-75
2021/07/26 08:22:19;;;;;;;5.53;2.95;;;18.50;90.40;;;;;;4967021;28;20386;-74
2021/07/26 08:24:44;;;;;;;4.40;3.17;;;18.60;90.30;;;;;;4969955;28;20031;-74
2021/07/26 08:27:10;;;;;;;5.97;3.08;;;18.60;90.00;;;;;;4968898;28;20497;-73
2021/07/26 08:29:36;;;;;;;6.35;3.50;;;18.60;90.10;;;;;;4967373;28;20038;-75
2021/07/26 08:32:02;;;;;;;4.95;3.35;;;18.70;90.20;;;;;;4953112;28;20055;-73
2021/07/26 08:34:27;;;;;;;3.85;3.17;;;18.70;90.30;;;;;;4946074;28;20019;-74
2021/07/26 08:37:03;;;;;;;6.47;3.78;;;18.70;90.20;;;;;;4949351;28;20630;-73
2021/07/26 08:39:30;;;;;;;6.35;3.50;;;18.80;90.20;;;;;;4952877;28;20134;-73
2021/07/26 08:41:56;;;;;;;5.18;3.63;;;18.90;90.40;;;;;;4952583;28;20055;-74
2021/07/26 08:44:22;;;;;;;5.80;3.80;;;18.90;90.30;;;;;;4950992;28;20102;-74
2021/07/26 08:46:50;;;;;;;6.43;3.58;;;19.00;89.80;;;;;;4947526;28;20097;-73
2021/07/26 08:49:18;;;;;;;5.03;3.60;;;19.00;89.60;;;;;;4950251;28;20068;-75
2021/07/26 08:51:50;;;;;;;4.38;3.22;;;19.10;90.10;;;;;;4949802;28;20019;-74
2021/07/26 08:54:16;;;;;;;4.68;3.35;;;19.10;90.10;;;;;;4949094;28;20182;-73
2021/07/26 08:56:45;;;;;;;5.88;3.78;;;19.30;89.50;;;;;;4951171;28;20173;-74
2021/07/26 08:59:11;;;;;;;4.28;3.40;;;19.50;90.30;;;;;;4945088;28;20023;-73
2021/07/26 09:01:38;;;;;;;4.45;3.22;;;19.60;89.60;;;;;;4946926;28;20033;-75
2021/07/26 09:04:04;;;;;;;5.87;4.47;;;19.70;87.00;;;;;;4949255;28;20024;-74
2021/07/26 09:06:30;;;;;;;5.95;3.50;;;19.90;88.50;;;;;;4952431;28;20118;-74
2021/07/26 09:08:57;;;;;;;4.45;3.35;;;20.20;90.10;;;;;;4952054;28;20125;-74
2021/07/26 09:11:41;;;;;;;5.40;3.15;;;20.40;87.80;;;;;;4951216;28;20027;-74
2021/07/26 09:14:07;;;;;;;4.05;3.58;;;20.40;85.00;;;;;;4962799;28;20490;-74
2021/07/26 09:16:33;;;;;;;4.95;3.35;;;20.30;84.70;;;;;;4954773;28;20086;-74
2021/07/26 09:19:00;;;;;;;4.63;3.70;;;20.40;84.90;;;;;;4951862;28;20031;-73
2021/07/26 09:21:49;;;;;;;5.68;3.58;;;20.50;84.00;;;;;;4949273;28;20027;-74
2021/07/26 09:24:22;;;;;;;6.35;3.00;;;20.60;83.40;;;;;;4949574;28;20039;-74
2021/07/26 09:26:48;;;;;;;6.28;3.88;;;20.80;82.90;;;;;;4946058;28;20045;-75
2021/07/26 09:29:28;;;;;;;4.50;3.92;;;20.70;79.40;;;;;;4942814;28;20649;-74
2021/07/26 09:32:05;;;;;;;5.30;3.88;;;20.80;80.30;;;;;;4956607;28;20525;-75
2021/07/26 09:34:35;;;;;;;3.73;2.63;;;20.90;82.60;;;;;;4963188;28;20031;-75
2021/07/26 09:37:01;;;;;;;4.22;2.67;;;21.10;80.20;;;;;;4966995;28;20058;-74
2021/07/26 09:39:29;;;;;;;3.97;3.20;;;21.10;81.40;;;;;;4965744;28;20058;-75
2021/07/26 09:41:58;;;;;;;5.05;3.20;;;21.00;81.10;;;;;;4964566;28;20023;-75
2021/07/26 09:44:29;;;;;;;4.22;3.40;;;20.90;79.90;;;;;;4967888;28;20023;-75
2021/07/26 09:47:18;;;;;;;3.95;2.75;;;20.90;79.30;;;;;;4967684;28;20088;-74
2021/07/26 09:49:44;;;;;;;4.10;3.20;;;21.00;79.80;;;;;;4964393;28;20557;-75
2021/07/26 09:52:10;;;;;;;3.35;2.70;;;21.00;80.10;;;;;;4966113;28;20130;-74
2021/07/26 09:54:48;;;;;;;4.47;3.10;;;21.00;79.10;;;;;;4966128;28;20049;-75
2021/07/26 09:57:19;;;;;;;4.40;2.80;;;21.10;79.50;;;;;;4969048;28;20034;-74
2021/07/26 09:59:45;;;;;;;4.30;2.83;;;21.10;79.20;;;;;;4962252;28;20026;-74
2021/07/26 10:02:19;;;;;;;3.45;2.67;;;21.10;78.40;;;;;;4967239;28;20108;-73
2021/07/26 10:04:46;;;;;;;12.73;4.78;;;21.20;78.40;;;;;;4965989;28;20038;-75
2021/07/26 10:07:13;;;;;;;4.57;3.13;;;21.20;77.80;;;;;;4968079;28;20033;-73
2021/07/26 10:09:41;;;;;;;5.25;2.90;;;21.30;78.00;;;;;;4966373;28;20053;-74
2021/07/26 10:12:11;;;;;;;;;;;21.30;77.30;;;;;;4964492;28;20030;-75
2021/07/26 10:14:41;;;;;;;4.07;3.08;;;21.20;78.50;;;;;;4963850;28;20440;-75
2021/07/26 10:17:07;;;;;;;3.58;2.95;;;21.20;77.30;;;;;;4967749;28;20133;-75
2021/07/26 10:19:33;;;;;;;3.78;2.72;;;21.20;77.60;;;;;;4966212;28;20019;-75
2021/07/26 10:22:00;;;;;;;4.55;2.92;;;21.30;80.20;;;;;;4962093;28;20034;-75
2021/07/26 10:24:46;;;;;;;4.25;3.05;;;21.40;76.80;;;;;;4966796;28;20077;-74
2021/07/26 10:27:18;;;;;;;4.82;3.10;;;21.50;78.80;;;;;;4969238;28;20055;-74
2021/07/26 10:29:58;;;;;;;4.72;3.10;;;21.60;75.60;;;;;;4994283;28;20118;-74
2021/07/26 10:32:30;;;;;;;4.63;2.97;;;21.50;76.60;;;;;;4943766;28;20039;-74
2021/07/26 10:35:00;;;;;;;4.45;3.10;;;21.50;74.20;;;;;;4943534;28;20030;-74
2021/07/26 10:37:52;;;;;;;4.60;3.45;;;21.70;78.40;;;;;;4953504;28;20095;-75
2021/07/26 10:40:32;;;;;;;4.57;2.70;;;21.90;77.40;;;;;;4953916;28;20046;-75
2021/07/26 10:43:03;;;;;;;3.85;2.90;;;22.00;75.00;;;;;;4946337;28;20027;-75
2021/07/26 10:45:32;;;;;;;4.05;2.90;;;21.90;72.50;;;;;;4951264;28;20501;-75
2021/07/26 10:48:31;;;;;;;4.20;3.10;;;22.00;76.00;;;;;;4966101;28;20019;-73
2021/07/26 10:50:59;;;;;;;2.72;2.40;;;22.00;74.00;;;;;;4913896;28;20054;-74
2021/07/26 10:53:34;;;;;;;3.35;2.70;;;22.10;74.10;;;;;;4951793;28;20397;-74
2021/07/26 10:56:09;;;;;;;3.95;2.78;;;22.30;72.20;;;;;;4949200;28;20459;-75
2021/07/26 10:58:38;;;;;;;3.45;2.95;;;22.40;74.40;;;;;;4949580;28;20051;-73
2021/07/26 11:01:26;;;;;;;3.42;3.00;;;22.40;73.30;;;;;;4956207;28;20031;-74
2021/07/26 11:03:55;;;;;;;5.63;2.70;;;22.40;70.70;;;;;;4968555;28;20041;-74
2021/07/26 11:06:36;;;;;;;4.93;2.70;;;22.30;69.50;;;;;;4965761;28;20103;-74
2021/07/26 11:09:20;;;;;;;3.97;3.15;;;22.60;71.50;;;;;;4969389;28;20035;-73
2021/07/26 11:11:48;;;;;;;6.45;2.75;;;22.60;70.80;;;;;;4969953;28;20034;-71
2021/07/26 11:14:14;;;;;;;3.50;2.80;;;22.90;73.60;;;;;;4971488;28;20581;-72
2021/07/26 11:17:00;;;;;;;5.25;3.10;;;22.90;72.80;;;;;;4969483;28;20644;-74
2021/07/26 11:19:29;;;;;;;3.03;2.35;;;22.90;69.40;;;;;;4967595;28;20027;-73
2021/07/26 11:21:59;;;;;;;5.25;3.05;;;22.80;70.50;;;;;;4970784;28;20038;-75
2021/07/26 11:24:43;;;;;;;4.57;3.10;;;23.00;72.30;;;;;;4969812;28;20030;-74
2021/07/26 11:27:10;;;;;;;3.60;2.70;;;23.10;72.20;;;;;;4970236;28;20026;-76
2021/07/26 11:29:42;;;;;;;5.28;3.10;;;23.10;70.60;;;;;;4984595;28;20027;-74
2021/07/26 11:32:13;;;;;;;5.72;3.08;;;23.10;73.70;;;;;;4955781;28;20043;-74
2021/07/26 11:34:43;;;;;;;7.50;3.38;;;23.30;74.50;;;;;;4951403;28;20027;-75
2021/07/26 11:37:13;;;;;;;4.85;2.90;;;23.20;70.40;;;;;;4952778;28;20052;-75
2021/07/26 11:39:55;;;;;;;4.32;2.83;;;23.10;68.00;;;;;;4949569;28;20070;-74
2021/07/26 11:42:27;;;;;;;3.92;2.67;;;23.00;70.80;;;;;;4951704;28;20054;-74
2021/07/26 11:45:01;;;;;;;3.47;2.60;;;23.10;67.70;;;;;;4952278;28;20454;-74
2021/07/26 11:47:38;;;;;;;4.28;2.65;;;23.10;68.00;;;;;;4954448;28;20039;-73
2021/07/26 11:50:06;;;;;;;4.47;2.67;;;23.10;68.10;;;;;;4946319;28;20023;-74
2021/07/26 11:52:32;;;;;;;3.97;2.85;;;23.10;68.60;;;;;;4941716;28;20122;-75
2021/07/26 11:54:58;;;;;;;5.68;3.03;;;23.20;68.00;;;;;;4949168;28;20110;-75
2021/07/26 11:57:23;;;;;;;4.07;2.97;;;23.20;67.60;;;;;;4947430;28;20034;-75
2021/07/26 11:59:53;;;;;;;3.97;3.35;;;23.40;69.70;;;;;;4949035;28;20042;-75
2021/07/26 12:02:29;;;;;;;3.85;3.25;;;23.40;67.20;;;;;;4966632;28;20091;-75
2021/07/26 12:05:00;;;;;;;3.85;3.10;;;23.30;68.80;;;;;;4971770;28;20065;-74
2021/07/26 12:07:40;;;;;;;6.40;3.42;;;23.40;69.80;;;;;;4971775;28;20081;-75
2021/07/26 12:10:06;;;;;;;3.03;2.70;;;23.50;67.10;;;;;;4969852;28;20073;-75
2021/07/26 12:12:39;;;;;;;5.35;3.67;;;23.50;67.60;;;;;;4968033;28;20046;-74
2021/07/26 12:15:27;;;;;;;3.28;2.65;;;23.60;70.00;;;;;;4972116;28;20046;-74
2021/07/26 12:18:10;;;;;;;5.55;3.60;;;23.60;66.80;;;;;;4978689;28;20029;-74
2021/07/26 12:20:44;;;;;;;3.90;3.20;;;23.50;66.70;;;;;;4968383;28;20496;-72
2021/07/26 12:23:21;;;;;;;8.88;3.58;;;23.50;67.20;;;;;;4967270;28;20026;-74
2021/07/26 12:25:48;;;;;;;3.35;2.67;;;23.50;66.50;;;;;;4970553;28;20046;-75
2021/07/26 12:28:18;;;;;;;5.78;3.15;;;23.70;66.60;;;;;;4970547;28;20486;-76
2021/07/26 12:30:47;;;;;;;3.72;2.53;;;23.60;64.90;;;;;;4968888;28;20039;-73
2021/07/26 12:33:28;;;;;;;5.35;2.90;;;23.50;64.00;;;;;;4965523;28;20046;-74
2021/07/26 12:36:13;;;;;;;4.28;2.83;;;23.50;64.10;;;;;;4971410;28;20085;-74
2021/07/26 12:39:00;;;;;;;2.72;2.38;;;23.40;63.40;;;;;;4974316;28;20570;-73
2021/07/26 12:41:31;;;;;;;3.20;2.75;;;23.30;64.10;;;;;;4967421;28;20654;-71
2021/07/26 12:44:19;;;;;;;3.08;2.33;;;23.40;62.40;;;;;;4970575;28;20038;-74
2021/07/26 12:46:47;;;;;;;3.53;2.35;;;23.40;62.00;;;;;;4971662;28;20106;-74
2021/07/26 12:49:21;;;;;;;3.17;2.28;;;23.40;63.80;;;;;;4969366;28;20031;-75
2021/07/26 12:51:52;;;;;;;3.97;2.83;;;23.50;62.50;;;;;;4977950;28;20031;-74
2021/07/26 12:54:18;;;;;;;4.18;2.90;;;23.60;62.70;;;;;;4969371;28;20049;-73
2021/07/26 12:56:44;;;;;;;4.07;2.65;;;23.80;64.40;;;;;;4968337;28;20059;-74
2021/07/26 12:59:10;;;;;;;3.85;2.45;;;23.80;63.60;;;;;;4971732;28;20033;-74